Viking Sea — LAWP7 — position and weather

sailwx.info

Track history (hours):
 
Tides and Currents Weather Stations Pressure Air Temp Water Temp Dewpoint Dewpoint Depression Visibility Wind Speed Wind Dir Waves Ship Positions

Viking Sea

Last reported at 2019-Jun-16 14:59 UTC. Time now 2019-Jun-16 15:18 UTC.
Position N 56°59' E 010°52'.

Length 228 m; draft 6.8 m.

Type: Ship. MMSI: 258215000.

Date/timePositionNaut miles runAvg speedWind from/ knotsBaromVisibWave heightAir tempDewpointWater temp
2019-Jun-16 14:59N 56°59' E 010°52'914.2
2019-Jun-16 14:20N 56°51' E 010°43'514.2
2019-Jun-16 13:58N 56°52' E 010°34'613.4
2019-Jun-16 13:30N 56°57' E 010°26'511.0
2019-Jun-16 13:00N 56°59' E 010°17'510.3
2019-Jun-16 12:30N 57°01' E 010°09'611.7
2019-Jun-16 12:00N 57°05' E 010°01'3 6.8
2019-Jun-16 11:30N 57°03' E 009°56'0 0.1
2019-Jun-16 11:00N 57°03' E 009°56'0 0.0
2019-Jun-16 10:30N 57°03' E 009°56'0 0.0
2019-Jun-16 10:00N 57°03' E 009°56'0 0.0
2019-Jun-16 09:30N 57°03' E 009°56'0 0.0
2019-Jun-16 09:00N 57°03' E 009°56'0 0.0
2019-Jun-16 08:30N 57°03' E 009°56'0 0.0
2019-Jun-16 08:00N 57°03' E 009°56'0 0.0
2019-Jun-16 07:30N 57°03' E 009°56'0 0.0
2019-Jun-16 07:00N 57°03' E 009°56'0 0.0
2019-Jun-16 06:30N 57°03' E 009°56'0 0.0
2019-Jun-16 06:00N 57°03' E 009°56'0 0.1
2019-Jun-16 05:30N 57°03' E 009°56'1 2.9
2019-Jun-16 05:00N 57°04' E 009°58'4 8.8
2019-Jun-16 04:31N 57°03' E 010°06'712.9
2019-Jun-16 04:00N 56°59' E 010°16'611.5
2019-Jun-16 03:30N 56°57' E 010°26'3315.2
2019-Jun-16 01:22N 56°51' E 011°24'817.3
2019-Jun-16 00:55N 56°51' E 011°38'819.2
2019-Jun-16 00:30N 56°47' E 011°51'3518.3
2019-Jun-15 22:35N 56°14' E 012°16'218.9
2019-Jun-15 22:29N 56°13' E 012°19'919.8
2019-Jun-15 22:00N 56°08' E 012°32'918.5
2019-Jun-15 21:30N 56°00' E 012°41'1019.1
2019-Jun-15 21:00N 55°51' E 012°45'816.5
2019-Jun-15 20:30N 55°43' E 012°38'2 3.1
2019-Jun-15 19:56N 55°42' E 012°36'0 0.0
2019-Jun-15 19:29N 55°42' E 012°36'0 0.0
2019-Jun-15 18:59N 55°42' E 012°36'0 0.0
2019-Jun-15 18:29N 55°42' E 012°36'0 0.0
2019-Jun-15 17:59N 55°42' E 012°36'0 0.0
2019-Jun-15 17:14N 55°42' E 012°36'0 0.0
2019-Jun-15 16:59N 55°42' E 012°36'0 0.0
2019-Jun-15 16:26N 55°42' E 012°36'0 0.0
2019-Jun-15 15:56N 55°42' E 012°36'0 0.0
2019-Jun-15 15:29N 55°42' E 012°36'0 0.0
2019-Jun-15 14:59N 55°42' E 012°36'0 0.0
2019-Jun-15 14:26N 55°42' E 012°36'0 0.0
2019-Jun-15 13:59N 55°42' E 012°36'0 0.0
2019-Jun-15 13:29N 55°42' E 012°36'0 0.0
2019-Jun-15 12:59N 55°42' E 012°36'0 0.0
2019-Jun-15 12:26N 55°42' E 012°36'0 0.0
2019-Jun-15 11:56N 55°42' E 012°36'0 0.0
2019-Jun-15 11:29N 55°42' E 012°36'0 0.0
2019-Jun-15 10:59N 55°42' E 012°36'0 0.0
2019-Jun-15 10:29N 55°42' E 012°36'0 0.0
2019-Jun-15 09:59N 55°42' E 012°36'0 0.0
2019-Jun-15 09:29N 55°42' E 012°36'0 0.0
2019-Jun-15 08:59N 55°42' E 012°36'0 0.0
2019-Jun-15 08:26N 55°42' E 012°36'0 0.0
2019-Jun-15 07:56N 55°42' E 012°36'0 0.0
2019-Jun-15 07:29N 55°42' E 012°36'0 0.0
2019-Jun-15 06:59N 55°42' E 012°36'0 0.0
2019-Jun-15 06:29N 55°42' E 012°36'0 0.0
2019-Jun-15 05:59N 55°42' E 012°36'0 0.0
2019-Jun-15 05:30N 55°42' E 012°36'2 4.6
2019-Jun-15 05:01N 55°44' E 012°39'5 9.8
2019-Jun-15 04:31N 55°39' E 012°42'4 7.9
2019-Jun-15 04:01N 55°35' E 012°42'5 9.4
2019-Jun-15 03:30N 55°30' E 012°42'612.6
2019-Jun-15 03:00N 55°24' E 012°41'611.6
2019-Jun-15 02:30N 55°18' E 012°40'611.2
2019-Jun-15 02:00N 55°13' E 012°40'611.5
2019-Jun-15 01:30N 55°07' E 012°42'711.7
2019-Jun-15 00:57N 55°01' E 012°46'511.7
2019-Jun-15 00:30N 54°56' E 012°48'810.9
2019-Jun-14 23:45N 54°48' E 012°50'311.2
2019-Jun-14 23:31N 54°46' E 012°46'611.2
2019-Jun-14 23:00N 54°43' E 012°38'510.9
2019-Jun-14 22:31N 54°40' E 012°30'610.8
2019-Jun-14 22:00N 54°37' E 012°22'510.4
2019-Jun-14 21:30N 54°33' E 012°17'611.2
2019-Jun-14 20:59N 54°27' E 012°14'511.0
2019-Jun-14 20:30N 54°23' E 012°08'510.6
2019-Jun-14 20:00N 54°18' E 012°05'510.9
2019-Jun-14 19:30N 54°13' E 012°05'2 3.6
2019-Jun-14 18:53N 54°10' E 012°06'0 0.0
2019-Jun-14 17:41N 54°10' E 012°06'0 0.0
2019-Jun-14 17:17N 54°10' E 012°06'0 0.0
2019-Jun-14 16:53N 54°10' E 012°06'0 0.0
2019-Jun-14 16:11N 54°10' E 012°06'0 0.0
2019-Jun-14 15:11N 54°10' E 012°06'0 0.0
2019-Jun-14 14:59N 54°10' E 012°06'0 0.0
2019-Jun-14 14:17N 54°10' E 012°06'0 0.0
2019-Jun-14 13:29N 54°10' E 012°06'0 0.0
2019-Jun-14 12:47N 54°10' E 012°06'0 0.0
2019-Jun-14 10:17N 54°10' E 012°06'0 0.0
2019-Jun-14 09:53N 54°10' E 012°06'0 0.0
2019-Jun-14 09:29N 54°10' E 012°06'0 0.0
2019-Jun-14 08:59N 54°10' E 012°06'0 0.0
2019-Jun-14 08:29N 54°10' E 012°06'0 0.0
2019-Jun-14 07:59N 54°10' E 012°06'0 0.0
2019-Jun-14 07:29N 54°10' E 012°06'0 0.0
2019-Jun-14 06:59N 54°10' E 012°06'0 0.0
2019-Jun-14 06:29N 54°10' E 012°06'0 0.0
2019-Jun-14 05:47N 54°10' E 012°06'0 0.0
2019-Jun-14 05:30N 54°10' E 012°06'1 2.7
2019-Jun-14 05:00N 54°12' E 012°05'5 9.9
2019-Jun-14 04:30N 54°16' E 012°01'612.2
2019-Jun-14 04:00N 54°22' E 011°57'510.5
2019-Jun-14 03:30N 54°26' E 012°03'714.5
2019-Jun-14 03:00N 54°31' E 012°12'815.4
2019-Jun-14 02:29N 54°38' E 012°18'816.6
2019-Jun-14 01:59N 54°43' E 012°30'815.8
2019-Jun-14 01:29N 54°47' E 012°42'715.0
2019-Jun-14 01:00N 54°47' E 012°54'816.5
2019-Jun-14 00:30N 54°47' E 013°08'3116.9
2019-Jun-13 22:42N 54°42' E 014°01'817.3
2019-Jun-13 22:15N 54°40' E 014°14'417.5
2019-Jun-13 22:00N 54°38' E 014°21'817.0
2019-Jun-13 21:30N 54°39' E 014°35'917.2
2019-Jun-13 20:58N 54°40' E 014°51'817.3
2019-Jun-13 20:30N 54°41' E 015°05'917.4
2019-Jun-13 20:00N 54°42' E 015°19'917.4
2019-Jun-13 19:30N 54°43' E 015°34'1117.6
2019-Jun-13 18:54N 54°45' E 015°53'817.7
2019-Jun-13 18:27N 54°47' E 016°06'1317.2
2019-Jun-13 17:41N 54°49' E 016°29'317.0
2019-Jun-13 17:29N 54°49' E 016°35'918.5
2019-Jun-13 17:00N 54°50' E 016°50'1118.5
2019-Jun-13 16:24N 54°53' E 017°09'718.4
2019-Jun-13 16:00N 54°55' E 017°21'1018.5
2019-Jun-13 15:27N 54°57' E 017°39'918.3
2019-Jun-13 14:57N 54°57' E 017°55'818.5
2019-Jun-13 14:31N 54°56' E 018°09'918.4
2019-Jun-13 14:00N 54°56' E 018°25'918.9
2019-Jun-13 13:31N 54°55' E 018°41'918.4
2019-Jun-13 13:01N 54°50' E 018°54'816.3
2019-Jun-13 12:31N 54°42' E 018°59'918.8
2019-Jun-13 12:00N 54°34' E 018°51'918.0
2019-Jun-13 11:30N 54°27' E 018°41'3 5.0
2019-Jun-13 10:58N 54°24' E 018°40'0 0.0
2019-Jun-13 10:28N 54°24' E 018°40'0 0.0
2019-Jun-13 09:58N 54°24' E 018°40'0 0.0
2019-Jun-13 09:28N 54°24' E 018°40'0 0.0
2019-Jun-13 08:58N 54°24' E 018°40'0 0.0
2019-Jun-13 08:28N 54°24' E 018°40'0 0.0
2019-Jun-13 07:58N 54°24' E 018°40'0 0.0
2019-Jun-13 07:28N 54°24' E 018°40'0 0.0
2019-Jun-13 06:58N 54°24' E 018°40'0 0.0
2019-Jun-13 06:28N 54°24' E 018°40'0 0.0
2019-Jun-13 05:58N 54°24' E 018°40'0 0.0
2019-Jun-13 05:28N 54°24' E 018°40'0 0.0
2019-Jun-13 04:58N 54°24' E 018°40'0 0.0
2019-Jun-13 04:28N 54°24' E 018°40'0 0.0
2019-Jun-13 03:58N 54°24' E 018°40'0 0.0
2019-Jun-13 03:28N 54°24' E 018°40'1 1.2
2019-Jun-13 03:00N 54°25' E 018°40'1 2.6
2019-Jun-13 02:30N 54°26' E 018°39'3 5.1
2019-Jun-13 02:00N 54°28' E 018°42'611.1
2019-Jun-13 01:30N 54°32' E 018°48'612.0
2019-Jun-13 01:00N 54°37' E 018°54'611.7
2019-Jun-13 00:30N 54°43' E 018°58'611.9
2019-Jun-13 00:00N 54°48' E 019°01'612.3
2019-Jun-12 23:30N 54°54' E 019°04'612.4
2019-Jun-12 23:00N 55°00' E 019°07'612.0
2019-Jun-12 22:30N 55°06' E 019°10'612.0
2019-Jun-12 22:00N 55°12' E 019°13'612.1
2019-Jun-12 21:30N 55°17' E 019°16'712.7
2019-Jun-12 20:59N 55°24' E 019°19'21213.0
2019-Jun-12 04:42N 58°47' E 021°11'312.8
2019-Jun-12 04:27N 58°50' E 021°14'612.8
2019-Jun-12 03:59N 58°55' E 021°21'1112.9
2019-Jun-12 03:08N 59°04' E 021°32'512.6
2019-Jun-12 02:44N 59°08' E 021°38'312.6
2019-Jun-12 02:30N 59°10' E 021°42'1312.7
2019-Jun-12 01:30N 59°18' E 022°02'1412.5
2019-Jun-12 00:23N 59°26' E 022°24'512.3
2019-Jun-12 00:00N 59°29' E 022°31'612.4
2019-Jun-11 23:30N 59°31' E 022°42'612.3
2019-Jun-11 23:00N 59°32' E 022°54'612.2
2019-Jun-11 22:30N 59°32' E 023°07'612.4
2019-Jun-11 22:00N 59°32' E 023°19'612.4
2019-Jun-11 21:30N 59°31' E 023°31'612.1
2019-Jun-11 21:00N 59°31' E 023°43'611.8
2019-Jun-11 20:30N 59°31' E 023°54'611.9
2019-Jun-11 20:00N 59°30' E 024°06'611.9
2019-Jun-11 19:30N 59°30' E 024°18'612.0
2019-Jun-11 19:01N 59°30' E 024°30'611.6
2019-Jun-11 18:31N 59°32' E 024°41'5 9.8
2019-Jun-11 18:01N 59°28' E 024°46'1 1.2
2019-Jun-11 17:29N 59°27' E 024°46'0 0.0
2019-Jun-11 16:59N 59°27' E 024°46'0 0.0
2019-Jun-11 16:26N 59°27' E 024°46'0 0.0
2019-Jun-11 15:56N 59°27' E 024°46'0 0.0
2019-Jun-11 15:29N 59°27' E 024°46'0 0.0
2019-Jun-11 14:59N 59°27' E 024°46'0 0.0
2019-Jun-11 14:29N 59°27' E 024°46'0 0.0
2019-Jun-11 13:56N 59°27' E 024°46'0 0.0
2019-Jun-11 13:29N 59°27' E 024°46'0 0.0
2019-Jun-11 12:59N 59°27' E 024°46'0 0.0
2019-Jun-11 12:29N 59°27' E 024°46'0 0.0
2019-Jun-11 11:59N 59°27' E 024°46'0 0.0
2019-Jun-11 11:29N 59°27' E 024°46'0 0.0
2019-Jun-11 10:59N 59°27' E 024°46'0 0.0
2019-Jun-11 10:29N 59°27' E 024°46'0 0.0
2019-Jun-11 09:59N 59°27' E 024°46'0 0.0
2019-Jun-11 09:29N 59°27' E 024°46'0 0.0
2019-Jun-11 08:59N 59°27' E 024°46'0 0.0
2019-Jun-11 08:29N 59°27' E 024°46'0 0.0
2019-Jun-11 07:59N 59°27' E 024°46'0 0.0
2019-Jun-11 07:29N 59°27' E 024°46'0 0.0
2019-Jun-11 06:59N 59°27' E 024°46'0 0.0
2019-Jun-11 06:29N 59°27' E 024°46'0 0.0
2019-Jun-11 05:59N 59°27' E 024°46'0 0.0
2019-Jun-11 05:29N 59°27' E 024°46'0 0.0
2019-Jun-11 05:00N 59°27' E 024°46'0 0.7
2019-Jun-11 04:30N 59°27' E 024°46'612.8
2019-Jun-11 04:01N 59°33' E 024°42'713.3
2019-Jun-11 03:30N 59°40' E 024°39'613.0
2019-Jun-11 03:00N 59°46' E 024°41'714.2
2019-Jun-11 02:30N 59°49' E 024°54'815.2
2019-Jun-11 02:00N 59°51' E 025°09'815.1
2019-Jun-11 01:30N 59°53' E 025°23'815.2
2019-Jun-11 01:00N 59°54' E 025°38'815.4
2019-Jun-11 00:30N 59°55' E 025°54'1015.5
2019-Jun-10 23:53N 59°58' E 026°12'615.0
2019-Jun-10 23:30N 59°60' E 026°23'714.8
2019-Jun-10 23:00N 60°01' E 026°37'815.0
2019-Jun-10 22:30N 60°00' E 026°52'714.4
2019-Jun-10 22:00N 60°00' E 027°06'815.1
2019-Jun-10 21:31N 60°04' E 027°19'815.2
2019-Jun-10 21:01N 60°08' E 027°32'815.0
2019-Jun-10 20:31N 60°12' E 027°45'815.0
2019-Jun-10 20:00N 60°10' E 028°00'815.1
2019-Jun-10 19:30N 60°08' E 028°15'816.6
2019-Jun-10 19:01N 60°04' E 028°29'816.6
2019-Jun-10 18:31N 60°03' E 028°45'816.8
2019-Jun-10 18:01N 60°02' E 029°02'816.6
2019-Jun-10 17:31N 60°02' E 029°19'612.4
2019-Jun-10 17:00N 60°01' E 029°31'813.6
2019-Jun-10 16:25N 59°59' E 029°46'512.7
2019-Jun-10 16:01N 59°56' E 029°56'611.5
2019-Jun-10 15:31N 59°57' E 030°07'2 4.5
2019-Jun-10 15:00N 59°57' E 030°12'0 0.0
2019-Jun-10 14:30N 59°57' E 030°12'0 0.0
2019-Jun-10 14:00N 59°57' E 030°12'0 0.0
2019-Jun-10 13:27N 59°57' E 030°12'0 0.0
2019-Jun-10 13:00N 59°57' E 030°12'0 0.0
2019-Jun-10 12:30N 59°57' E 030°12'0 0.0
2019-Jun-10 12:00N 59°57' E 030°12'0 0.0
2019-Jun-10 11:30N 59°57' E 030°12'0 0.0
2019-Jun-10 11:00N 59°57' E 030°12'0 0.0
2019-Jun-10 10:30N 59°57' E 030°12'0 0.0
2019-Jun-10 10:00N 59°57' E 030°12'0 0.0
2019-Jun-10 09:30N 59°57' E 030°12'0 0.0
2019-Jun-10 09:00N 59°57' E 030°12'0 0.0
2019-Jun-10 08:30N 59°57' E 030°12'0 0.0
2019-Jun-10 08:00N 59°57' E 030°12'0 0.0
2019-Jun-10 07:30N 59°57' E 030°12'0 0.0
2019-Jun-10 07:00N 59°57' E 030°12'0 0.0
2019-Jun-10 06:30N 59°57' E 030°12'0 0.0
2019-Jun-10 06:00N 59°57' E 030°12'0 0.0
2019-Jun-10 05:30N 59°57' E 030°12'0 0.0
2019-Jun-10 05:00N 59°57' E 030°12'0 0.0
2019-Jun-10 04:30N 59°57' E 030°12'0 0.0
2019-Jun-10 04:00N 59°57' E 030°12'0 0.0
2019-Jun-10 03:30N 59°57' E 030°12'0 0.0
2019-Jun-10 03:00N 59°57' E 030°12'0 0.0
2019-Jun-10 02:30N 59°57' E 030°12'0 0.0
2019-Jun-10 01:57N 59°57' E 030°12'0 0.0
2019-Jun-10 01:30N 59°57' E 030°12'0 0.0
2019-Jun-10 01:00N 59°57' E 030°12'0 0.0
2019-Jun-10 00:30N 59°57' E 030°12'0 0.0
2019-Jun-10 00:00N 59°57' E 030°12'0 0.0
2019-Jun-09 23:30N 59°57' E 030°12'0 0.0
2019-Jun-09 23:00N 59°57' E 030°12'0 0.0
2019-Jun-09 22:30N 59°57' E 030°12'0 0.0
2019-Jun-09 22:00N 59°57' E 030°12'0 0.0
2019-Jun-09 21:30N 59°57' E 030°12'0 0.0
2019-Jun-09 21:00N 59°57' E 030°12'0 0.0
2019-Jun-09 20:30N 59°57' E 030°12'0 0.0
2019-Jun-09 20:00N 59°57' E 030°12'0 0.0
2019-Jun-09 19:30N 59°57' E 030°12'0 0.0
2019-Jun-09 18:57N 59°57' E 030°12'0 0.0
2019-Jun-09 18:30N 59°57' E 030°12'0 0.0
2019-Jun-09 18:00N 59°57' E 030°12'0 0.0
2019-Jun-09 17:24N 59°57' E 030°12'0 0.0
2019-Jun-09 17:00N 59°57' E 030°12'0 0.0
2019-Jun-09 16:30N 59°57' E 030°12'0 0.0
2019-Jun-09 16:00N 59°57' E 030°12'0 0.0
2019-Jun-09 15:30N 59°57' E 030°12'0 0.0
2019-Jun-09 15:00N 59°57' E 030°12'0 0.0
2019-Jun-09 14:30N 59°57' E 030°12'0 0.0
2019-Jun-09 14:00N 59°57' E 030°12'0 0.0
2019-Jun-09 13:27N 59°57' E 030°12'0 0.0
2019-Jun-09 13:00N 59°57' E 030°12'0 0.0
2019-Jun-09 12:30N 59°57' E 030°12'0 0.0
2019-Jun-09 12:00N 59°57' E 030°12'0 0.0
2019-Jun-09 11:30N 59°57' E 030°12'0 0.0
2019-Jun-09 11:00N 59°57' E 030°12'0 0.0
2019-Jun-09 10:30N 59°57' E 030°12'0 0.0
2019-Jun-09 10:00N 59°57' E 030°12'0 0.0
2019-Jun-09 09:30N 59°57' E 030°12'0 0.0
2019-Jun-09 08:57N 59°57' E 030°12'0 0.0
2019-Jun-09 08:30N 59°57' E 030°12'0 0.0
2019-Jun-09 08:00N 59°57' E 030°12'0 0.0
2019-Jun-09 07:30N 59°57' E 030°12'0 0.0
2019-Jun-09 07:00N 59°57' E 030°12'0 0.0
2019-Jun-09 06:30N 59°57' E 030°12'0 0.0
2019-Jun-09 06:00N 59°57' E 030°12'0 0.0
2019-Jun-09 05:30N 59°57' E 030°12'0 0.0
2019-Jun-09 05:00N 59°57' E 030°12'1 0.6
2019-Jun-09 04:00N 59°57' E 030°10'5 9.1
2019-Jun-09 03:30N 59°56' E 030°02'510.4
2019-Jun-09 03:00N 59°57' E 029°52'5 9.8
2019-Jun-09 02:30N 59°59' E 029°43'612.0
2019-Jun-09 02:00N 60°01' E 029°32'611.1
2019-Jun-09 01:30N 60°02' E 029°21'611.8
2019-Jun-09 01:00N 60°02' E 029°09'612.0
2019-Jun-09 00:30N 60°02' E 028°57'612.2
2019-Jun-09 00:00N 60°02' E 028°44'713.4
2019-Jun-08 23:30N 60°03' E 028°31'612.9
2019-Jun-08 23:00N 60°05' E 028°20'612.8
2019-Jun-08 22:30N 60°08' E 028°08'713.1
2019-Jun-08 22:00N 60°10' E 027°55'612.4
2019-Jun-08 21:30N 60°10' E 027°43'713.0
2019-Jun-08 21:00N 60°06' E 027°32'612.6
2019-Jun-08 20:30N 60°03' E 027°21'612.6
2019-Jun-08 20:00N 59°60' E 027°10'611.8
2019-Jun-08 19:30N 59°58' E 026°59'714.2
2019-Jun-08 19:01N 59°60' E 026°45'714.1
2019-Jun-08 18:31N 59°59' E 026°31'714.5
2019-Jun-08 18:01N 59°57' E 026°17'713.4
2019-Jun-08 17:29N 59°55' E 026°03'613.0
2019-Jun-08 17:00N 59°53' E 025°51'613.2
2019-Jun-08 16:30N 59°52' E 025°38'713.7
2019-Jun-08 16:00N 59°54' E 025°25'713.2
2019-Jun-08 15:30N 59°56' E 025°12'713.2
2019-Jun-08 15:00N 59°59' E 025°00'611.9
2019-Jun-08 14:31N 60°04' E 024°54'510.9
2019-Jun-08 14:01N 60°09' E 024°55'0 0.1
2019-Jun-08 13:29N 60°09' E 024°55'0 0.0
2019-Jun-08 12:59N 60°09' E 024°55'0 0.0
2019-Jun-08 12:26N 60°09' E 024°55'0 0.0
2019-Jun-08 11:59N 60°09' E 024°55'0 0.0
2019-Jun-08 11:29N 60°09' E 024°55'0 0.0
2019-Jun-08 10:59N 60°09' E 024°55'0 0.0
2019-Jun-08 10:29N 60°09' E 024°55'0 0.0
2019-Jun-08 09:59N 60°09' E 024°55'0 0.0
2019-Jun-08 09:29N 60°09' E 024°55'0 0.0
2019-Jun-08 08:59N 60°09' E 024°55'0 0.0
2019-Jun-08 08:29N 60°09' E 024°55'0 0.0
2019-Jun-08 07:59N 60°09' E 024°55'0 0.0
2019-Jun-08 07:29N 60°09' E 024°55'0 0.0
2019-Jun-08 06:56N 60°09' E 024°55'0 0.0
2019-Jun-08 06:29N 60°09' E 024°55'0 0.0
2019-Jun-08 05:59N 60°09' E 024°55'0 0.0
2019-Jun-08 05:30N 60°09' E 024°55'1 2.5
2019-Jun-08 05:00N 60°08' E 024°54'714.6
2019-Jun-08 04:31N 60°01' E 024°56'815.1
2019-Jun-08 04:01N 59°53' E 024°58'612.0
2019-Jun-08 03:30N 59°48' E 024°52'714.6
2019-Jun-08 03:00N 59°46' E 024°38'714.5
2019-Jun-08 02:30N 59°44' E 024°25'714.6
2019-Jun-08 02:00N 59°41' E 024°11'714.6
2019-Jun-08 01:30N 59°39' E 023°57'714.4
2019-Jun-08 01:00N 59°37' E 023°43'815.3
2019-Jun-08 00:30N 59°35' E 023°29'917.2
2019-Jun-08 00:00N 59°32' E 023°13'917.4
2019-Jun-07 23:30N 59°30' E 022°56'917.2
2019-Jun-07 23:00N 59°27' E 022°40'917.0
2019-Jun-07 22:30N 59°23' E 022°26'917.0
2019-Jun-07 21:59N 59°20' E 022°09'817.0
2019-Jun-07 21:30N 59°19' E 021°53'817.0
2019-Jun-07 21:00N 59°18' E 021°37'917.0
2019-Jun-07 20:30N 59°16' E 021°20'817.1
2019-Jun-07 20:00N 59°14' E 021°04'917.2
2019-Jun-07 19:29N 59°13' E 020°47'2317.1
2019-Jun-07 18:07N 59°14' E 020°01'217.0
2019-Jun-07 18:00N 59°14' E 019°58'917.2
2019-Jun-07 17:30N 59°14' E 019°41'917.1
2019-Jun-07 17:00N 59°14' E 019°24'816.9
2019-Jun-07 16:30N 59°14' E 019°08'612.0
2019-Jun-07 16:00N 59°16' E 018°57'611.3
2019-Jun-07 15:30N 59°19' E 018°48'612.1
2019-Jun-07 15:01N 59°22' E 018°37'611.7
2019-Jun-07 14:30N 59°26' E 018°28'3 5.2
2019-Jun-07 14:01N 59°24' E 018°27'3 6.3
2019-Jun-07 13:30N 59°22' E 018°22'511.2
2019-Jun-07 13:01N 59°20' E 018°12'3 6.0
2019-Jun-07 12:28N 59°19' E 018°05'0 0.0
2019-Jun-07 11:58N 59°19' E 018°05'0 0.0
2019-Jun-07 11:28N 59°19' E 018°05'0 0.0
2019-Jun-07 10:58N 59°19' E 018°05'0 0.0
2019-Jun-07 10:28N 59°19' E 018°05'0 0.0
2019-Jun-07 09:58N 59°19' E 018°05'0 0.0
2019-Jun-07 09:28N 59°19' E 018°05'0 0.0
2019-Jun-07 08:58N 59°19' E 018°05'0 0.0
2019-Jun-07 08:28N 59°19' E 018°05'0 0.0
2019-Jun-07 07:58N 59°19' E 018°05'0 0.0
2019-Jun-07 07:28N 59°19' E 018°05'0 0.0
2019-Jun-07 06:58N 59°19' E 018°05'0 0.0
2019-Jun-07 06:28N 59°19' E 018°05'0 0.0
2019-Jun-07 05:58N 59°19' E 018°05'0 0.0
2019-Jun-07 05:28N 59°19' E 018°05'0 0.0
2019-Jun-07 04:58N 59°19' E 018°05'0 0.0
2019-Jun-07 04:28N 59°19' E 018°05'0 0.0
2019-Jun-07 03:58N 59°19' E 018°05'0 0.0
2019-Jun-07 03:28N 59°19' E 018°05'0 0.0
2019-Jun-07 02:58N 59°19' E 018°05'0 0.0
2019-Jun-07 02:28N 59°19' E 018°05'0 0.0
2019-Jun-07 01:58N 59°19' E 018°05'0 0.0
2019-Jun-07 01:28N 59°19' E 018°05'0 0.0
2019-Jun-07 00:58N 59°19' E 018°05'0 0.0
2019-Jun-07 00:28N 59°19' E 018°05'0 0.0
2019-Jun-06 23:58N 59°19' E 018°05'0 0.0
2019-Jun-06 23:28N 59°19' E 018°05'0 0.0
2019-Jun-06 22:58N 59°19' E 018°05'0 0.0
2019-Jun-06 22:28N 59°19' E 018°05'0 0.0
2019-Jun-06 21:58N 59°19' E 018°05'0 0.0
2019-Jun-06 21:28N 59°19' E 018°05'0 0.0
2019-Jun-06 20:58N 59°19' E 018°05'0 0.0
2019-Jun-06 20:28N 59°19' E 018°05'0 0.0
2019-Jun-06 19:58N 59°19' E 018°05'0 0.0
2019-Jun-06 19:28N 59°19' E 018°05'0 0.0
2019-Jun-06 18:58N 59°19' E 018°05'0 0.0
2019-Jun-06 18:28N 59°19' E 018°05'0 0.0
2019-Jun-06 17:58N 59°19' E 018°05'0 0.0
2019-Jun-06 17:28N 59°19' E 018°05'0 0.0
2019-Jun-06 16:58N 59°19' E 018°05'0 0.0
2019-Jun-06 16:28N 59°19' E 018°05'0 0.0
2019-Jun-06 15:58N 59°19' E 018°05'0 0.0
2019-Jun-06 15:28N 59°19' E 018°05'  
Track history (hours):
 
Tides and Currents Weather Stations Pressure Air Temp Water Temp Dewpoint Dewpoint Depression Visibility Wind Speed Wind Dir Waves Ship Positions

Viking Sea

Last reported at 2019-Jun-16 14:59 UTC. Time now 2019-Jun-16 15:18 UTC.
Position N 56°59' E 010°52'.

Length 228 m; draft 6.8 m.

Type: Ship. MMSI: 258215000.

Date/timePositionNaut miles runAvg speedWind from/ knotsBaromVisibWave heightAir tempDewpointWater temp
2019-Jun-16 14:59N 56°59' E 010°52'914.2
2019-Jun-16 14:20N 56°51' E 010°43'514.2
2019-Jun-16 13:58N 56°52' E 010°34'613.4
2019-Jun-16 13:30N 56°57' E 010°26'511.0
2019-Jun-16 13:00N 56°59' E 010°17'510.3
2019-Jun-16 12:30N 57°01' E 010°09'611.7
2019-Jun-16 12:00N 57°05' E 010°01'3 6.8
2019-Jun-16 11:30N 57°03' E 009°56'0 0.1
2019-Jun-16 11:00N 57°03' E 009°56'0 0.0
2019-Jun-16 10:30N 57°03' E 009°56'0 0.0
2019-Jun-16 10:00N 57°03' E 009°56'0 0.0
2019-Jun-16 09:30N 57°03' E 009°56'0 0.0
2019-Jun-16 09:00N 57°03' E 009°56'0 0.0
2019-Jun-16 08:30N 57°03' E 009°56'0 0.0
2019-Jun-16 08:00N 57°03' E 009°56'0 0.0
2019-Jun-16 07:30N 57°03' E 009°56'0 0.0
2019-Jun-16 07:00N 57°03' E 009°56'0 0.0
2019-Jun-16 06:30N 57°03' E 009°56'0 0.0
2019-Jun-16 06:00N 57°03' E 009°56'0 0.1
2019-Jun-16 05:30N 57°03' E 009°56'1 2.9
2019-Jun-16 05:00N 57°04' E 009°58'4 8.8
2019-Jun-16 04:31N 57°03' E 010°06'712.9
2019-Jun-16 04:00N 56°59' E 010°16'611.5
2019-Jun-16 03:30N 56°57' E 010°26'3315.2
2019-Jun-16 01:22N 56°51' E 011°24'817.3
2019-Jun-16 00:55N 56°51' E 011°38'819.2
2019-Jun-16 00:30N 56°47' E 011°51'3518.3
2019-Jun-15 22:35N 56°14' E 012°16'218.9
2019-Jun-15 22:29N 56°13' E 012°19'919.8
2019-Jun-15 22:00N 56°08' E 012°32'918.5
2019-Jun-15 21:30N 56°00' E 012°41'1019.1
2019-Jun-15 21:00N 55°51' E 012°45'816.5
2019-Jun-15 20:30N 55°43' E 012°38'2 3.1
2019-Jun-15 19:56N 55°42' E 012°36'0 0.0
2019-Jun-15 19:29N 55°42' E 012°36'0 0.0
2019-Jun-15 18:59N 55°42' E 012°36'0 0.0
2019-Jun-15 18:29N 55°42' E 012°36'0 0.0
2019-Jun-15 17:59N 55°42' E 012°36'0 0.0
2019-Jun-15 17:14N 55°42' E 012°36'0 0.0
2019-Jun-15 16:59N 55°42' E 012°36'0 0.0
2019-Jun-15 16:26N 55°42' E 012°36'0 0.0
2019-Jun-15 15:56N 55°42' E 012°36'0 0.0
2019-Jun-15 15:29N 55°42' E 012°36'0 0.0
2019-Jun-15 14:59N 55°42' E 012°36'0 0.0
2019-Jun-15 14:26N 55°42' E 012°36'0 0.0
2019-Jun-15 13:59N 55°42' E 012°36'0 0.0
2019-Jun-15 13:29N 55°42' E 012°36'0 0.0
2019-Jun-15 12:59N 55°42' E 012°36'0 0.0
2019-Jun-15 12:26N 55°42' E 012°36'0 0.0
2019-Jun-15 11:56N 55°42' E 012°36'0 0.0
2019-Jun-15 11:29N 55°42' E 012°36'0 0.0
2019-Jun-15 10:59N 55°42' E 012°36'0 0.0
2019-Jun-15 10:29N 55°42' E 012°36'0 0.0
2019-Jun-15 09:59N 55°42' E 012°36'0 0.0
2019-Jun-15 09:29N 55°42' E 012°36'0 0.0
2019-Jun-15 08:59N 55°42' E 012°36'0 0.0
2019-Jun-15 08:26N 55°42' E 012°36'0 0.0
2019-Jun-15 07:56N 55°42' E 012°36'0 0.0
2019-Jun-15 07:29N 55°42' E 012°36'0 0.0
2019-Jun-15 06:59N 55°42' E 012°36'0 0.0
2019-Jun-15 06:29N 55°42' E 012°36'0 0.0
2019-Jun-15 05:59N 55°42' E 012°36'0 0.0
2019-Jun-15 05:30N 55°42' E 012°36'2 4.6
2019-Jun-15 05:01N 55°44' E 012°39'5 9.8
2019-Jun-15 04:31N 55°39' E 012°42'4 7.9
2019-Jun-15 04:01N 55°35' E 012°42'5 9.4
2019-Jun-15 03:30N 55°30' E 012°42'612.6
2019-Jun-15 03:00N 55°24' E 012°41'611.6
2019-Jun-15 02:30N 55°18' E 012°40'611.2
2019-Jun-15 02:00N 55°13' E 012°40'611.5
2019-Jun-15 01:30N 55°07' E 012°42'711.7
2019-Jun-15 00:57N 55°01' E 012°46'511.7
2019-Jun-15 00:30N 54°56' E 012°48'810.9
2019-Jun-14 23:45N 54°48' E 012°50'311.2
2019-Jun-14 23:31N 54°46' E 012°46'611.2
2019-Jun-14 23:00N 54°43' E 012°38'510.9
2019-Jun-14 22:31N 54°40' E 012°30'610.8
2019-Jun-14 22:00N 54°37' E 012°22'510.4
2019-Jun-14 21:30N 54°33' E 012°17'611.2
2019-Jun-14 20:59N 54°27' E 012°14'511.0
2019-Jun-14 20:30N 54°23' E 012°08'510.6
2019-Jun-14 20:00N 54°18' E 012°05'510.9
2019-Jun-14 19:30N 54°13' E 012°05'2 3.6
2019-Jun-14 18:53N 54°10' E 012°06'0 0.0
2019-Jun-14 17:41N 54°10' E 012°06'0 0.0
2019-Jun-14 17:17N 54°10' E 012°06'0 0.0
2019-Jun-14 16:53N 54°10' E 012°06'0 0.0
2019-Jun-14 16:11N 54°10' E 012°06'0 0.0
2019-Jun-14 15:11N 54°10' E 012°06'0 0.0
2019-Jun-14 14:59N 54°10' E 012°06'0 0.0
2019-Jun-14 14:17N 54°10' E 012°06'0 0.0
2019-Jun-14 13:29N 54°10' E 012°06'0 0.0
2019-Jun-14 12:47N 54°10' E 012°06'0 0.0
2019-Jun-14 10:17N 54°10' E 012°06'0 0.0
2019-Jun-14 09:53N 54°10' E 012°06'0 0.0
2019-Jun-14 09:29N 54°10' E 012°06'0 0.0
2019-Jun-14 08:59N 54°10' E 012°06'0 0.0
2019-Jun-14 08:29N 54°10' E 012°06'0 0.0
2019-Jun-14 07:59N 54°10' E 012°06'0 0.0
2019-Jun-14 07:29N 54°10' E 012°06'0 0.0
2019-Jun-14 06:59N 54°10' E 012°06'0 0.0
2019-Jun-14 06:29N 54°10' E 012°06'0 0.0
2019-Jun-14 05:47N 54°10' E 012°06'0 0.0
2019-Jun-14 05:30N 54°10' E 012°06'1 2.7
2019-Jun-14 05:00N 54°12' E 012°05'5 9.9
2019-Jun-14 04:30N 54°16' E 012°01'612.2
2019-Jun-14 04:00N 54°22' E 011°57'510.5
2019-Jun-14 03:30N 54°26' E 012°03'714.5
2019-Jun-14 03:00N 54°31' E 012°12'815.4
2019-Jun-14 02:29N 54°38' E 012°18'816.6
2019-Jun-14 01:59N 54°43' E 012°30'815.8
2019-Jun-14 01:29N 54°47' E 012°42'715.0
2019-Jun-14 01:00N 54°47' E 012°54'816.5
2019-Jun-14 00:30N 54°47' E 013°08'3116.9
2019-Jun-13 22:42N 54°42' E 014°01'817.3
2019-Jun-13 22:15N 54°40' E 014°14'417.5
2019-Jun-13 22:00N 54°38' E 014°21'817.0
2019-Jun-13 21:30N 54°39' E 014°35'917.2
2019-Jun-13 20:58N 54°40' E 014°51'817.3
2019-Jun-13 20:30N 54°41' E 015°05'917.4
2019-Jun-13 20:00N 54°42' E 015°19'917.4
2019-Jun-13 19:30N 54°43' E 015°34'1117.6
2019-Jun-13 18:54N 54°45' E 015°53'817.7
2019-Jun-13 18:27N 54°47' E 016°06'1317.2
2019-Jun-13 17:41N 54°49' E 016°29'317.0
2019-Jun-13 17:29N 54°49' E 016°35'918.5
2019-Jun-13 17:00N 54°50' E 016°50'1118.5
2019-Jun-13 16:24N 54°53' E 017°09'718.4
2019-Jun-13 16:00N 54°55' E 017°21'1018.5
2019-Jun-13 15:27N 54°57' E 017°39'918.3
2019-Jun-13 14:57N 54°57' E 017°55'818.5
2019-Jun-13 14:31N 54°56' E 018°09'918.4
2019-Jun-13 14:00N 54°56' E 018°25'918.9
2019-Jun-13 13:31N 54°55' E 018°41'918.4
2019-Jun-13 13:01N 54°50' E 018°54'816.3
2019-Jun-13 12:31N 54°42' E 018°59'918.8
2019-Jun-13 12:00N 54°34' E 018°51'918.0
2019-Jun-13 11:30N 54°27' E 018°41'3 5.0
2019-Jun-13 10:58N 54°24' E 018°40'0 0.0
2019-Jun-13 10:28N 54°24' E 018°40'0 0.0
2019-Jun-13 09:58N 54°24' E 018°40'0 0.0
2019-Jun-13 09:28N 54°24' E 018°40'0 0.0
2019-Jun-13 08:58N 54°24' E 018°40'0 0.0
2019-Jun-13 08:28N 54°24' E 018°40'0 0.0
2019-Jun-13 07:58N 54°24' E 018°40'0 0.0
2019-Jun-13 07:28N 54°24' E 018°40'0 0.0
2019-Jun-13 06:58N 54°24' E 018°40'0 0.0
2019-Jun-13 06:28N 54°24' E 018°40'0 0.0
2019-Jun-13 05:58N 54°24' E 018°40'0 0.0
2019-Jun-13 05:28N 54°24' E 018°40'0 0.0
2019-Jun-13 04:58N 54°24' E 018°40'0 0.0
2019-Jun-13 04:28N 54°24' E 018°40'0 0.0
2019-Jun-13 03:58N 54°24' E 018°40'0 0.0
2019-Jun-13 03:28N 54°24' E 018°40'1 1.2
2019-Jun-13 03:00N 54°25' E 018°40'1 2.6
2019-Jun-13 02:30N 54°26' E 018°39'3 5.1
2019-Jun-13 02:00N 54°28' E 018°42'611.1
2019-Jun-13 01:30N 54°32' E 018°48'612.0
2019-Jun-13 01:00N 54°37' E 018°54'611.7
2019-Jun-13 00:30N 54°43' E 018°58'611.9
2019-Jun-13 00:00N 54°48' E 019°01'612.3
2019-Jun-12 23:30N 54°54' E 019°04'612.4
2019-Jun-12 23:00N 55°00' E 019°07'612.0
2019-Jun-12 22:30N 55°06' E 019°10'612.0
2019-Jun-12 22:00N 55°12' E 019°13'612.1
2019-Jun-12 21:30N 55°17' E 019°16'712.7
2019-Jun-12 20:59N 55°24' E 019°19'21213.0
2019-Jun-12 04:42N 58°47' E 021°11'312.8
2019-Jun-12 04:27N 58°50' E 021°14'612.8
2019-Jun-12 03:59N 58°55' E 021°21'1112.9
2019-Jun-12 03:08N 59°04' E 021°32'512.6
2019-Jun-12 02:44N 59°08' E 021°38'312.6
2019-Jun-12 02:30N 59°10' E 021°42'1312.7
2019-Jun-12 01:30N 59°18' E 022°02'1412.5
2019-Jun-12 00:23N 59°26' E 022°24'512.3
2019-Jun-12 00:00N 59°29' E 022°31'612.4
2019-Jun-11 23:30N 59°31' E 022°42'612.3
2019-Jun-11 23:00N 59°32' E 022°54'612.2
2019-Jun-11 22:30N 59°32' E 023°07'612.4
2019-Jun-11 22:00N 59°32' E 023°19'612.4
2019-Jun-11 21:30N 59°31' E 023°31'612.1
2019-Jun-11 21:00N 59°31' E 023°43'611.8
2019-Jun-11 20:30N 59°31' E 023°54'611.9
2019-Jun-11 20:00N 59°30' E 024°06'611.9
2019-Jun-11 19:30N 59°30' E 024°18'612.0
2019-Jun-11 19:01N 59°30' E 024°30'611.6
2019-Jun-11 18:31N 59°32' E 024°41'5 9.8
2019-Jun-11 18:01N 59°28' E 024°46'1 1.2
2019-Jun-11 17:29N 59°27' E 024°46'0 0.0
2019-Jun-11 16:59N 59°27' E 024°46'0 0.0
2019-Jun-11 16:26N 59°27' E 024°46'0 0.0
2019-Jun-11 15:56N 59°27' E 024°46'0 0.0
2019-Jun-11 15:29N 59°27' E 024°46'0 0.0
2019-Jun-11 14:59N 59°27' E 024°46'0 0.0
2019-Jun-11 14:29N 59°27' E 024°46'0 0.0
2019-Jun-11 13:56N 59°27' E 024°46'0 0.0
2019-Jun-11 13:29N 59°27' E 024°46'0 0.0
2019-Jun-11 12:59N 59°27' E 024°46'0 0.0
2019-Jun-11 12:29N 59°27' E 024°46'0 0.0
2019-Jun-11 11:59N 59°27' E 024°46'0 0.0
2019-Jun-11 11:29N 59°27' E 024°46'0 0.0
2019-Jun-11 10:59N 59°27' E 024°46'0 0.0
2019-Jun-11 10:29N 59°27' E 024°46'0 0.0
2019-Jun-11 09:59N 59°27' E 024°46'0 0.0
2019-Jun-11 09:29N 59°27' E 024°46'0 0.0
2019-Jun-11 08:59N 59°27' E 024°46'0 0.0
2019-Jun-11 08:29N 59°27' E 024°46'0 0.0
2019-Jun-11 07:59N 59°27' E 024°46'0 0.0
2019-Jun-11 07:29N 59°27' E 024°46'0 0.0
2019-Jun-11 06:59N 59°27' E 024°46'0 0.0
2019-Jun-11 06:29N 59°27' E 024°46'0 0.0
2019-Jun-11 05:59N 59°27' E 024°46'0 0.0
2019-Jun-11 05:29N 59°27' E 024°46'0 0.0
2019-Jun-11 05:00N 59°27' E 024°46'0 0.7
2019-Jun-11 04:30N 59°27' E 024°46'612.8
2019-Jun-11 04:01N 59°33' E 024°42'713.3
2019-Jun-11 03:30N 59°40' E 024°39'613.0
2019-Jun-11 03:00N 59°46' E 024°41'714.2
2019-Jun-11 02:30N 59°49' E 024°54'815.2
2019-Jun-11 02:00N 59°51' E 025°09'815.1
2019-Jun-11 01:30N 59°53' E 025°23'815.2
2019-Jun-11 01:00N 59°54' E 025°38'815.4
2019-Jun-11 00:30N 59°55' E 025°54'1015.5
2019-Jun-10 23:53N 59°58' E 026°12'615.0
2019-Jun-10 23:30N 59°60' E 026°23'714.8
2019-Jun-10 23:00N 60°01' E 026°37'815.0
2019-Jun-10 22:30N 60°00' E 026°52'714.4
2019-Jun-10 22:00N 60°00' E 027°06'815.1
2019-Jun-10 21:31N 60°04' E 027°19'815.2
2019-Jun-10 21:01N 60°08' E 027°32'815.0
2019-Jun-10 20:31N 60°12' E 027°45'815.0
2019-Jun-10 20:00N 60°10' E 028°00'815.1
2019-Jun-10 19:30N 60°08' E 028°15'816.6
2019-Jun-10 19:01N 60°04' E 028°29'816.6
2019-Jun-10 18:31N 60°03' E 028°45'816.8
2019-Jun-10 18:01N 60°02' E 029°02'816.6
2019-Jun-10 17:31N 60°02' E 029°19'612.4
2019-Jun-10 17:00N 60°01' E 029°31'813.6
2019-Jun-10 16:25N 59°59' E 029°46'512.7
2019-Jun-10 16:01N 59°56' E 029°56'611.5
2019-Jun-10 15:31N 59°57' E 030°07'2 4.5
2019-Jun-10 15:00N 59°57' E 030°12'0 0.0
2019-Jun-10 14:30N 59°57' E 030°12'0 0.0
2019-Jun-10 14:00N 59°57' E 030°12'0 0.0
2019-Jun-10 13:27N 59°57' E 030°12'0 0.0
2019-Jun-10 13:00N 59°57' E 030°12'0 0.0
2019-Jun-10 12:30N 59°57' E 030°12'0 0.0
2019-Jun-10 12:00N 59°57' E 030°12'0 0.0
2019-Jun-10 11:30N 59°57' E 030°12'0 0.0
2019-Jun-10 11:00N 59°57' E 030°12'0 0.0
2019-Jun-10 10:30N 59°57' E 030°12'0 0.0
2019-Jun-10 10:00N 59°57' E 030°12'0 0.0
2019-Jun-10 09:30N 59°57' E 030°12'0 0.0
2019-Jun-10 09:00N 59°57' E 030°12'0 0.0
2019-Jun-10 08:30N 59°57' E 030°12'0 0.0
2019-Jun-10 08:00N 59°57' E 030°12'0 0.0
2019-Jun-10 07:30N 59°57' E 030°12'0 0.0
2019-Jun-10 07:00N 59°57' E 030°12'0 0.0
2019-Jun-10 06:30N 59°57' E 030°12'0 0.0
2019-Jun-10 06:00N 59°57' E 030°12'0 0.0
2019-Jun-10 05:30N 59°57' E 030°12'0 0.0
2019-Jun-10 05:00N 59°57' E 030°12'0 0.0
2019-Jun-10 04:30N 59°57' E 030°12'0 0.0
2019-Jun-10 04:00N 59°57' E 030°12'0 0.0
2019-Jun-10 03:30N 59°57' E 030°12'0 0.0
2019-Jun-10 03:00N 59°57' E 030°12'0 0.0
2019-Jun-10 02:30N 59°57' E 030°12'0 0.0
2019-Jun-10 01:57N 59°57' E 030°12'0 0.0
2019-Jun-10 01:30N 59°57' E 030°12'0 0.0
2019-Jun-10 01:00N 59°57' E 030°12'0 0.0
2019-Jun-10 00:30N 59°57' E 030°12'0 0.0
2019-Jun-10 00:00N 59°57' E 030°12'0 0.0
2019-Jun-09 23:30N 59°57' E 030°12'0 0.0
2019-Jun-09 23:00N 59°57' E 030°12'0 0.0
2019-Jun-09 22:30N 59°57' E 030°12'0 0.0
2019-Jun-09 22:00N 59°57' E 030°12'0 0.0
2019-Jun-09 21:30N 59°57' E 030°12'0 0.0
2019-Jun-09 21:00N 59°57' E 030°12'0 0.0
2019-Jun-09 20:30N 59°57' E 030°12'0 0.0
2019-Jun-09 20:00N 59°57' E 030°12'0 0.0
2019-Jun-09 19:30N 59°57' E 030°12'0 0.0
2019-Jun-09 18:57N 59°57' E 030°12'0 0.0
2019-Jun-09 18:30N 59°57' E 030°12'0 0.0
2019-Jun-09 18:00N 59°57' E 030°12'0 0.0
2019-Jun-09 17:24N 59°57' E 030°12'0 0.0
2019-Jun-09 17:00N 59°57' E 030°12'0 0.0
2019-Jun-09 16:30N 59°57' E 030°12'0 0.0
2019-Jun-09 16:00N 59°57' E 030°12'0 0.0
2019-Jun-09 15:30N 59°57' E 030°12'0 0.0
2019-Jun-09 15:00N 59°57' E 030°12'0 0.0
2019-Jun-09 14:30N 59°57' E 030°12'0 0.0
2019-Jun-09 14:00N 59°57' E 030°12'0 0.0
2019-Jun-09 13:27N 59°57' E 030°12'0 0.0
2019-Jun-09 13:00N 59°57' E 030°12'0 0.0
2019-Jun-09 12:30N 59°57' E 030°12'0 0.0
2019-Jun-09 12:00N 59°57' E 030°12'0 0.0
2019-Jun-09 11:30N 59°57' E 030°12'0 0.0
2019-Jun-09 11:00N 59°57' E 030°12'0 0.0
2019-Jun-09 10:30N 59°57' E 030°12'0 0.0
2019-Jun-09 10:00N 59°57' E 030°12'0 0.0
2019-Jun-09 09:30N 59°57' E 030°12'0 0.0
2019-Jun-09 08:57N 59°57' E 030°12'0 0.0
2019-Jun-09 08:30N 59°57' E 030°12'0 0.0
2019-Jun-09 08:00N 59°57' E 030°12'0 0.0
2019-Jun-09 07:30N 59°57' E 030°12'0 0.0
2019-Jun-09 07:00N 59°57' E 030°12'0 0.0
2019-Jun-09 06:30N 59°57' E 030°12'0 0.0
2019-Jun-09 06:00N 59°57' E 030°12'0 0.0
2019-Jun-09 05:30N 59°57' E 030°12'0 0.0
2019-Jun-09 05:00N 59°57' E 030°12'1 0.6
2019-Jun-09 04:00N 59°57' E 030°10'5 9.1
2019-Jun-09 03:30N 59°56' E 030°02'510.4
2019-Jun-09 03:00N 59°57' E 029°52'5 9.8
2019-Jun-09 02:30N 59°59' E 029°43'612.0
2019-Jun-09 02:00N 60°01' E 029°32'611.1
2019-Jun-09 01:30N 60°02' E 029°21'611.8
2019-Jun-09 01:00N 60°02' E 029°09'612.0
2019-Jun-09 00:30N 60°02' E 028°57'612.2
2019-Jun-09 00:00N 60°02' E 028°44'713.4
2019-Jun-08 23:30N 60°03' E 028°31'612.9
2019-Jun-08 23:00N 60°05' E 028°20'612.8
2019-Jun-08 22:30N 60°08' E 028°08'713.1
2019-Jun-08 22:00N 60°10' E 027°55'612.4
2019-Jun-08 21:30N 60°10' E 027°43'713.0
2019-Jun-08 21:00N 60°06' E 027°32'612.6
2019-Jun-08 20:30N 60°03' E 027°21'612.6
2019-Jun-08 20:00N 59°60' E 027°10'611.8
2019-Jun-08 19:30N 59°58' E 026°59'714.2
2019-Jun-08 19:01N 59°60' E 026°45'714.1
2019-Jun-08 18:31N 59°59' E 026°31'714.5
2019-Jun-08 18:01N 59°57' E 026°17'713.4
2019-Jun-08 17:29N 59°55' E 026°03'613.0
2019-Jun-08 17:00N 59°53' E 025°51'613.2
2019-Jun-08 16:30N 59°52' E 025°38'713.7
2019-Jun-08 16:00N 59°54' E 025°25'713.2
2019-Jun-08 15:30N 59°56' E 025°12'713.2
2019-Jun-08 15:00N 59°59' E 025°00'611.9
2019-Jun-08 14:31N 60°04' E 024°54'510.9
2019-Jun-08 14:01N 60°09' E 024°55'0 0.1
2019-Jun-08 13:29N 60°09' E 024°55'0 0.0
2019-Jun-08 12:59N 60°09' E 024°55'0 0.0
2019-Jun-08 12:26N 60°09' E 024°55'0 0.0
2019-Jun-08 11:59N 60°09' E 024°55'0 0.0
2019-Jun-08 11:29N 60°09' E 024°55'0 0.0
2019-Jun-08 10:59N 60°09' E 024°55'0 0.0
2019-Jun-08 10:29N 60°09' E 024°55'0 0.0
2019-Jun-08 09:59N 60°09' E 024°55'0 0.0
2019-Jun-08 09:29N 60°09' E 024°55'0 0.0
2019-Jun-08 08:59N 60°09' E 024°55'0 0.0
2019-Jun-08 08:29N 60°09' E 024°55'0 0.0
2019-Jun-08 07:59N 60°09' E 024°55'0 0.0
2019-Jun-08 07:29N 60°09' E 024°55'0 0.0
2019-Jun-08 06:56N 60°09' E 024°55'0 0.0
2019-Jun-08 06:29N 60°09' E 024°55'0 0.0
2019-Jun-08 05:59N 60°09' E 024°55'0 0.0
2019-Jun-08 05:30N 60°09' E 024°55'1 2.5
2019-Jun-08 05:00N 60°08' E 024°54'714.6
2019-Jun-08 04:31N 60°01' E 024°56'815.1
2019-Jun-08 04:01N 59°53' E 024°58'612.0
2019-Jun-08 03:30N 59°48' E 024°52'714.6
2019-Jun-08 03:00N 59°46' E 024°38'714.5
2019-Jun-08 02:30N 59°44' E 024°25'714.6
2019-Jun-08 02:00N 59°41' E 024°11'714.6
2019-Jun-08 01:30N 59°39' E 023°57'714.4
2019-Jun-08 01:00N 59°37' E 023°43'815.3
2019-Jun-08 00:30N 59°35' E 023°29'917.2
2019-Jun-08 00:00N 59°32' E 023°13'917.4
2019-Jun-07 23:30N 59°30' E 022°56'917.2
2019-Jun-07 23:00N 59°27' E 022°40'917.0
2019-Jun-07 22:30N 59°23' E 022°26'917.0
2019-Jun-07 21:59N 59°20' E 022°09'817.0
2019-Jun-07 21:30N 59°19' E 021°53'817.0
2019-Jun-07 21:00N 59°18' E 021°37'917.0
2019-Jun-07 20:30N 59°16' E 021°20'817.1
2019-Jun-07 20:00N 59°14' E 021°04'917.2
2019-Jun-07 19:29N 59°13' E 020°47'2317.1
2019-Jun-07 18:07N 59°14' E 020°01'217.0
2019-Jun-07 18:00N 59°14' E 019°58'917.2
2019-Jun-07 17:30N 59°14' E 019°41'917.1
2019-Jun-07 17:00N 59°14' E 019°24'816.9
2019-Jun-07 16:30N 59°14' E 019°08'612.0
2019-Jun-07 16:00N 59°16' E 018°57'611.3
2019-Jun-07 15:30N 59°19' E 018°48'612.1
2019-Jun-07 15:01N 59°22' E 018°37'611.7
2019-Jun-07 14:30N 59°26' E 018°28'3 5.2
2019-Jun-07 14:01N 59°24' E 018°27'3 6.3
2019-Jun-07 13:30N 59°22' E 018°22'511.2
2019-Jun-07 13:01N 59°20' E 018°12'3 6.0
2019-Jun-07 12:28N 59°19' E 018°05'0 0.0
2019-Jun-07 11:58N 59°19' E 018°05'0 0.0
2019-Jun-07 11:28N 59°19' E 018°05'0 0.0
2019-Jun-07 10:58N 59°19' E 018°05'0 0.0
2019-Jun-07 10:28N 59°19' E 018°05'0 0.0
2019-Jun-07 09:58N 59°19' E 018°05'0 0.0
2019-Jun-07 09:28N 59°19' E 018°05'0 0.0
2019-Jun-07 08:58N 59°19' E 018°05'0 0.0
2019-Jun-07 08:28N 59°19' E 018°05'0 0.0
2019-Jun-07 07:58N 59°19' E 018°05'0 0.0
2019-Jun-07 07:28N 59°19' E 018°05'0 0.0
2019-Jun-07 06:58N 59°19' E 018°05'0 0.0
2019-Jun-07 06:28N 59°19' E 018°05'0 0.0
2019-Jun-07 05:58N 59°19' E 018°05'0 0.0
2019-Jun-07 05:28N 59°19' E 018°05'0 0.0
2019-Jun-07 04:58N 59°19' E 018°05'0 0.0
2019-Jun-07 04:28N 59°19' E 018°05'0 0.0
2019-Jun-07 03:58N 59°19' E 018°05'0 0.0
2019-Jun-07 03:28N 59°19' E 018°05'0 0.0
2019-Jun-07 02:58N 59°19' E 018°05'0 0.0
2019-Jun-07 02:28N 59°19' E 018°05'0 0.0
2019-Jun-07 01:58N 59°19' E 018°05'0 0.0
2019-Jun-07 01:28N 59°19' E 018°05'0 0.0
2019-Jun-07 00:58N 59°19' E 018°05'0 0.0
2019-Jun-07 00:28N 59°19' E 018°05'0 0.0
2019-Jun-06 23:58N 59°19' E 018°05'0 0.0
2019-Jun-06 23:28N 59°19' E 018°05'0 0.0
2019-Jun-06 22:58N 59°19' E 018°05'0 0.0
2019-Jun-06 22:28N 59°19' E 018°05'0 0.0
2019-Jun-06 21:58N 59°19' E 018°05'0 0.0
2019-Jun-06 21:28N 59°19' E 018°05'0 0.0
2019-Jun-06 20:58N 59°19' E 018°05'0 0.0
2019-Jun-06 20:28N 59°19' E 018°05'0 0.0
2019-Jun-06 19:58N 59°19' E 018°05'0 0.0
2019-Jun-06 19:28N 59°19' E 018°05'0 0.0
2019-Jun-06 18:58N 59°19' E 018°05'0 0.0
2019-Jun-06 18:28N 59°19' E 018°05'0 0.0
2019-Jun-06 17:58N 59°19' E 018°05'0 0.0
2019-Jun-06 17:28N 59°19' E 018°05'0 0.0
2019-Jun-06 16:58N 59°19' E 018°05'0 0.0
2019-Jun-06 16:28N 59°19' E 018°05'0 0.0
2019-Jun-06 15:58N 59°19' E 018°05'0 0.0
2019-Jun-06 15:28N 59°19' E 018°05'  

Dump ship's entire track history